• Join FlightAware (Why Join?)
  • Login
  • US Flag 
09:17AM EDT


 

Airport Tracker/Info


-or-


 

Live Flight TrackerFlight Track Log ✈ N546QS ✈ 08-Jun-2013 ✈ KUGN - KALB

Flight Track Log - Related Links

Times and Time Zones

All times are in EDT time to prevent confusion due to time zone crossing. See the N546QS flight status page for this flight to view local times or setup timezone preferences in your user account.

Time Position Orientation Groundspeed Altitude Reporting Facility
EDT Latitude Longitude Course Direction KTS MPH feet Rate Location/Type
04:53PM 42.4333 -87.8167 117° Southeast 210 242 3,000  Level Chicago TRACON
04:54PM 42.4003 -87.7286 117° Southeast 255 293 7,600 3,960 Climbing Chicago Center
04:55PM 42.3244 -87.7183 174° South 275 316 12,000 4,260 Climbing Chicago Center
04:56PM 42.2836 -87.5925 114° Southeast 336 387 16,400 3,840 Climbing Chicago Center
04:57PM 42.2850 -87.4531 89° East 365 420 20,000 3,240 Climbing Chicago Center
04:58PM 42.2831 -87.3067 91° East 386 444 23,100 2,760 Climbing Chicago Center
04:59PM 42.2861 -87.1483 88° East 416 479 25,700 2,520 Climbing Chicago Center
05:00PM 42.2878 -86.9764 89° East 453 521 28,500 2,160 Climbing Chicago Center
05:01PM 42.2889 -86.7539 90° East 498 573 30,200 2,040 Climbing Chicago Center
05:03PM 42.2911 -86.5678 89° East 526 605 32,800 2,700 Climbing Chicago Center
05:04PM 42.2928 -86.3697 89° East 528 608 35,800 3,060 Climbing Chicago Center
05:05PM 42.2939 -86.1514 90° East 518 596 39,200 2,520 Climbing Chicago Center
05:06PM 42.2939 -85.9689 90° East 497 572 41,000 840 Climbing Chicago Center
05:07PM 42.2933 -85.7753 90° East 515 593 41,000  Level Chicago Center
05:08PM 42.2936 -85.5739 90° East 536 617 41,000  Level Chicago Center
05:09PM 42.2933 -85.3719 90° East 540 621 41,000  Level Chicago Center
05:10PM 42.2919 -85.1739 90° East 535 616 41,000  Level Chicago Center
05:11PM 42.2903 -84.9361 90° East 531 611 41,000  Level Chicago Center
05:12PM 42.2975 -84.7369 87° East 534 615 41,000  Level Chicago Center
05:13PM 42.3161 -84.5358 83° East 541 623 41,000  Level Chicago Center
05:14PM 42.3336 -84.3342 83° East 542 624 41,000  Level Chicago Center
05:14PM 42.3397 -84.2353 85° East 534 615 41,000  Level Cleveland Center
05:15PM 42.3564 -84.0311 84° East 534 615 41,000  Level Cleveland Center
05:16PM 42.3747 -83.8325 83° East 534 615 41,000  Level Cleveland Center
05:17PM 42.3925 -83.6336 83° East 534 615 41,000  Level Cleveland Center
05:18PM 42.4064 -83.4261 85° East 543 625 41,000  Level Cleveland Center
05:19PM 42.4214 -83.2244 84° East 543 625 41,000  Level Cleveland Center
05:20PM 42.4361 -83.0336 84° East 549 632 41,000  Level Cleveland Center
05:21PM 42.4508 -82.8317 84° East 549 632 41,000  Level Cleveland Center
05:22PM 42.4650 -82.6294 85° East 544 626 41,000  Level Cleveland Center
05:23PM 42.4789 -82.4272 85° East 539 620 41,000  Level Cleveland Center
05:24PM 42.4922 -82.2303 85° East 539 620 41,000  Level Cleveland Center
05:25PM 42.5053 -82.0281 85° East 539 620 41,000  Level Cleveland Center
05:26PM 42.5181 -81.8256 85° East 534 615 41,000  Level Cleveland Center
05:27PM 42.5325 -81.6228 84° East 541 623 41,000  Level Cleveland Center
05:28PM 42.5425 -81.4231 86° East 535 616 41,000  Level Cleveland Center
05:29PM 42.5564 -81.2033 85° East 541 623 41,000  Level Cleveland Center
05:30PM 42.5678 -81.0006 86° East 536 617 41,000  Level Cleveland Center
05:31PM 42.5789 -80.7975 86° East 536 617 41,000  Level Cleveland Center
05:32PM 42.5914 -80.5972 85° East 536 617 41,000  Level Cleveland Center
05:33PM 42.6017 -80.3969 86° East 531 611 41,000  Level Cleveland Center
05:34PM 42.6117 -80.1967 86° East 536 617 41,000  Level Cleveland Center
05:35PM 42.6233 -79.9936 85° East 536 617 41,000  Level Cleveland Center
05:36PM 42.6347 -79.7958 85° East 536 617 41,000  Level Cleveland Center
05:37PM 42.6414 -79.5953 87° East 531 611 41,000  Level Cleveland Center
05:38PM 42.6500 -79.3947 87° East 536 617 41,000  Level Cleveland Center
05:39PM 42.6583 -79.1942 87° East 536 617 41,000  Level Cleveland Center
05:40PM 42.6661 -78.9908 87° East 536 617 41,000  Level Cleveland Center
05:41PM 42.6733 -78.7844 87° East 536 617 41,000  Level Cleveland Center
05:42PM 42.6806 -78.5836 87° East 536 617 41,000 -300 Level Cleveland Center
05:43PM 42.6872 -78.3772 87° East 536 617 40,400 -1,320 Descending Cleveland Center
05:44PM 42.6936 -78.1792 87° East 536 617 38,400 -2,100 Descending Cleveland Center
05:45PM 42.6997 -77.9811 88° East 531 611 36,300 -2,100 Descending Cleveland Center
05:46PM 42.7056 -77.7775 88° East 531 611 34,200 -1,680 Descending Cleveland Center
05:47PM 42.7117 -77.6047 87° East 531 611 33,000 -360 Descending Cleveland Center
05:50PM 42.7203 -77.1350 88° East 522 601 33,000  Level Boston Center
05:51PM 42.7247 -76.9206 88° East 517 595 33,000  Level Boston Center
05:52PM 42.7306 -76.7200 88° East 517 595 33,000 -60 Level Boston Center
05:53PM 42.7336 -76.5194 89° East 517 595 32,900 -1,020 Descending Boston Center
05:54PM 42.7364 -76.3217 89° East 517 595 31,000 -2,100 Descending Boston Center
05:55PM 42.7414 -76.1072 88° East 517 595 28,700 -2,160 Descending Boston Center
05:56PM 42.7411 -75.9147 90° East 511 588 26,700 -2,040 Descending Boston Center
05:57PM 42.7447 -75.7228 88° East 511 588 24,700 -2,040 Descending Boston Center
05:58PM 42.7436 -75.5417 90° East 499 574 22,700 -2,100 Descending Boston Center
05:59PM 42.7483 -75.3667 88° East 474 545 20,600 -2,040 Descending Boston Center
06:00PM 42.7483 -75.1942 90° East 466 536 18,700 -1,860 Descending Boston Center
06:01PM 42.7467 -75.0072 91° East 453 521 16,700 -1,800 Descending Boston Center
06:01PM 42.7478 -74.9481 89° East 443 510 16,000 -1,380 Descending Boston Center
06:02PM 42.7497 -74.8689 88° East 434 499 15,200 -1,800 Descending Boston Center
06:02PM 42.7492 -74.7869 91° East 424 488 14,200 -2,100 Descending Boston Center
06:03PM 42.7494 -74.6739 90° East 428 493 13,100 -1,620 Descending Boston Center
06:04PM 42.7500 -74.5353 90° East 418 481 11,500 -1,260 Descending Boston Center
06:05PM 42.7278 -74.3819 101° East 393 452 10,600 -840 Descending Boston Center
06:05PM 42.7094 -74.3475 126° Southeast 319 367 10,400 -1,140 Descending Boston Center
06:06PM 42.6853 -74.2958 122° Southeast 325 374 9,500 -2,040 Descending Boston Center
06:06PM 42.6672 -74.2614 125° Southeast 280 322 8,600 -2,640 Descending Boston Center
06:07PM 42.6264 -74.2036 134° Southeast 304 350 6,900 -2,520 Descending Boston Center
06:07PM 42.6081 -74.1806 137° Southeast 285 328 5,800 -2,100 Descending Boston Center
06:08PM 42.5775 -74.1319 130° Southeast 296 341 4,800 -1,680 Descending Boston Center
06:08PM 42.5531 -74.1003 136° Southeast 288 331 4,100 -1,320 Descending Boston Center
06:09PM 42.5203 -74.0514 132° Southeast 280 322 3,500 -600 Descending Boston Center
06:09PM 42.5019 -74.0283 137° Southeast 254 292 3,500  Level Boston Center
06:10PM 42.4964 -73.9719 98° East 239 275 3,500  Level Boston Center
06:10PM 42.4947 -73.9353 94° East 219 252 3,500  Level Boston Center
06:11PM 42.4953 -73.8903 89° East 223 257 3,500  Level Boston Center
06:11PM 42.5019 -73.8567 75° East 208 239 3,500  Level Boston Center
06:12PM 42.5150 -73.8175 66° East 204 235 3,500  Level Boston Center
06:12PM 42.5278 -73.8008 44° Northeast 184 212 3,500  Level Boston Center
06:13PM 42.5486 -73.7983 North 166 191 3,500 -120 Level Boston Center
06:13PM 42.5736 -73.8019 354° North 153 176 3,400 -540 Descending Boston Center
06:14PM 42.6006 -73.7997 North 138 159 3,000 -840 Descending Boston Center
06:14PM 42.6236 -73.8031 354° North 151 174 2,500 -720 Descending Boston Center
06:15PM 42.6319 -73.8031 360° North 144 166 2,300 -900 Descending Boston Center
06:15PM 42.6611 -73.8036 359° North 151 174 1,700 -840 Descending Boston Center
06:16PM 42.6944 -73.8072 355° North 114 131 1,100 -600 Descending Boston Center
06:17PM 42.7319 -73.8081 359° North 115 132 500 -540 Descending Boston Center